Time;durP1;ratioP1;P1;durP2;ratioP2;P2;SDS_P1;SDS_P2;PMS_P1;PMS_P2;Temp;Humidity;BMP_temperature;BMP_pressure;BME280_temperature;BME280_humidity;BME280_pressure;Samples;Min_cycle;Max_cycle;Signal;HPM_P1;HPM_P2
2023/08/09 00:00:32;;;;;;;3.92;1.60;;;;;;;16.48;65.38;100060.09;4481934;32;33613;-77
2023/08/09 00:03:00;;;;;;;3.72;1.77;;;;;;;17.00;62.60;100061.37;4481998;32;33829;-78
2023/08/09 00:05:28;;;;;;;4.47;1.85;;;;;;;16.58;65.18;100056.84;4463600;32;32389;-77
2023/08/09 00:07:55;;;;;;;4.62;1.60;;;;;;;16.53;65.82;100063.69;4481790;32;33985;-76
2023/08/09 00:10:23;;;;;;;4.37;1.62;;;;;;;16.56;64.00;100057.66;4483430;32;33766;-76
2023/08/09 00:12:51;;;;;;;3.40;1.70;;;;;;;16.30;67.38;100058.78;4476768;32;33414;-77
2023/08/09 00:15:18;;;;;;;4.55;1.70;;;;;;;16.55;66.53;100061.13;4483118;32;33500;-77
2023/08/09 00:17:46;;;;;;;3.95;1.67;;;;;;;16.42;66.03;100062.56;4483489;32;33813;-77
2023/08/09 00:20:14;;;;;;;2.80;1.50;;;;;;;16.63;64.80;100063.09;4483332;32;33994;-77
2023/08/09 00:22:42;;;;;;;5.50;1.73;;;;;;;16.63;64.41;100060.47;4466421;32;32985;-77
2023/08/09 00:25:13;;;;;;;3.60;1.67;;;;;;;16.28;66.07;100065.69;4482013;32;33286;-77
2023/08/09 00:27:42;;;;;;;3.25;1.55;;;;;;;16.28;66.24;100068.31;4462602;32;33490;-77
2023/08/09 00:30:10;;;;;;;3.63;1.60;;;;;;;16.60;64.41;100065.62;4473645;32;33823;-77
2023/08/09 00:32:39;;;;;;;3.42;1.58;;;;;;;16.65;63.83;100069.25;4483478;32;33164;-77
2023/08/09 00:35:07;;;;;;;4.78;1.80;;;;;;;16.52;65.17;100067.16;4481364;32;33782;-77
2023/08/09 00:37:35;;;;;;;4.50;1.75;;;;;;;16.57;64.00;100060.28;4464799;32;31882;-76
2023/08/09 00:40:12;;;;;;;3.67;1.60;;;;;;;16.68;64.03;100066.69;4447080;32;34207;-78
2023/08/09 00:42:41;;;;;;;3.67;1.75;;;;;;;16.51;64.34;100057.53;4474915;32;31540;-77
2023/08/09 00:45:09;;;;;;;4.05;1.60;;;;;;;16.50;63.74;100058.41;4464098;32;34360;-77
2023/08/09 00:47:37;;;;;;;4.00;1.52;;;;;;;16.48;63.23;100052.25;4460635;32;34537;-77
2023/08/09 00:50:05;;;;;;;4.72;1.73;;;;;;;16.34;64.33;100045.78;4461243;32;34193;-77
2023/08/09 00:52:33;;;;;;;3.92;1.62;;;;;;;15.99;67.01;100057.06;4458921;32;33838;-76
2023/08/09 00:55:01;;;;;;;3.67;1.80;;;;;;;15.73;68.94;100061.59;4469729;32;34458;-76
2023/08/09 00:57:30;;;;;;;4.53;1.70;;;;;;;15.87;68.31;100060.22;4458506;32;34285;-78
2023/08/09 00:59:58;;;;;;;4.45;1.75;;;;;;;15.86;68.26;100063.69;4457071;32;33571;-77
2023/08/09 01:02:25;;;;;;;4.37;1.63;;;;;;;16.11;66.58;100056.53;4473661;32;34163;-76
2023/08/09 01:04:53;;;;;;;4.45;1.75;;;;;;;16.10;67.07;100059.97;4476940;32;34135;-77
2023/08/09 01:07:31;;;;;;;3.83;1.80;;;;;;;16.04;67.39;100059.81;4459435;32;33917;-77
2023/08/09 01:10:15;;;;;;;2.95;1.35;;;;;;;16.33;65.83;100060.56;4468224;32;33730;-77
2023/08/09 01:12:50;;;;;;;3.92;1.70;;;;;;;16.54;63.50;100061.97;4473484;32;33351;-76
2023/08/09 01:15:19;;;;;;;3.80;1.62;;;;;;;16.29;64.42;100058.72;4459765;32;34175;-77
2023/08/09 01:17:48;;;;;;;3.33;1.70;;;;;;;15.91;66.66;100051.63;4471056;32;32931;-77
2023/08/09 01:20:17;;;;;;;3.78;1.60;;;;;;;16.15;65.25;100055.78;4479049;32;33586;-77
2023/08/09 01:22:50;;;;;;;3.50;1.58;;;;;;;16.06;65.76;100050.28;4459068;32;34109;-77
2023/08/09 01:25:18;;;;;;;3.55;1.98;;;;;;;15.85;67.55;100051.47;4473873;32;32902;-77
2023/08/09 01:27:48;;;;;;;2.92;1.62;;;;;;;15.90;66.41;100055.09;4476826;32;33485;-76
2023/08/09 01:30:16;;;;;;;3.60;1.60;;;;;;;16.20;65.38;100054.13;4458833;32;31964;-76
2023/08/09 01:32:44;;;;;;;3.72;1.70;;;;;;;15.82;68.21;100051.41;4479294;32;33843;-77
2023/08/09 01:35:11;;;;;;;4.62;1.73;;;;;;;15.48;69.59;100054.75;4472091;32;34420;-77
2023/08/09 01:37:47;;;;;;;3.87;1.50;;;;;;;16.00;67.84;100051.00;4459982;32;34613;-77
2023/08/09 01:40:16;;;;;;;3.53;1.70;;;;;;;16.13;67.26;100052.22;4455757;32;33121;-78
2023/08/09 01:42:43;;;;;;;3.40;1.70;;;;;;;15.81;68.64;100049.63;4460435;32;32815;-76
2023/08/09 01:45:12;;;;;;;3.78;1.60;;;;;;;16.08;67.44;100048.59;4458590;32;33636;-77
2023/08/09 01:47:41;;;;;;;4.35;1.85;;;;;;;16.33;66.76;100049.25;4475126;32;34464;-76
2023/08/09 01:50:20;;;;;;;4.22;1.62;;;;;;;15.88;68.49;100046.34;4471407;32;33715;-77
2023/08/09 01:52:48;;;;;;;3.80;1.80;;;;;;;15.81;68.84;100043.53;4466099;32;32315;-77
2023/08/09 01:55:18;;;;;;;3.50;1.50;;;;;;;15.83;68.59;100047.94;4478022;32;33848;-77
2023/08/09 01:57:46;;;;;;;4.55;1.87;;;;;;;15.99;68.00;100049.22;4473403;32;33568;-76
2023/08/09 02:00:19;;;;;;;3.72;1.70;;;;;;;16.35;66.26;100052.78;4476013;32;33756;-77
2023/08/09 02:02:48;;;;;;;3.62;1.55;;;;;;;16.15;67.34;100045.31;4467621;32;31422;-78
2023/08/09 02:05:16;;;;;;;4.12;1.70;;;;;;;15.84;68.11;100049.72;4471040;32;34336;-76
2023/08/09 02:07:44;;;;;;;4.18;1.55;;;;;;;15.89;67.67;100045.47;4477978;32;33388;-77
2023/08/09 02:10:12;;;;;;;3.60;1.70;;;;;;;15.99;67.70;100045.75;4470914;32;33564;-77
2023/08/09 02:12:40;;;;;;;2.83;1.33;;;;;;;16.23;65.77;100049.00;4479290;32;33190;-77
2023/08/09 02:15:08;;;;;;;3.53;1.50;;;;;;;15.89;67.38;100053.31;4461666;32;33600;-76
2023/08/09 02:17:36;;;;;;;3.55;1.65;;;;;;;16.00;67.38;100048.41;4468554;32;33695;-77
2023/08/09 02:20:06;;;;;;;5.10;1.50;;;;;;;16.03;66.61;100055.41;4473221;32;33859;-77
2023/08/09 02:22:37;;;;;;;3.45;1.50;;;;;;;15.32;70.10;100063.87;4477396;32;32850;-77
2023/08/09 02:25:07;;;;;;;2.93;1.50;;;;;;;15.59;68.95;100061.16;4459706;32;33334;-77
2023/08/09 02:27:34;;;;;;;3.35;1.60;;;;;;;15.35;69.35;100063.94;4473115;32;33511;-77
2023/08/09 02:30:03;;;;;;;4.60;1.58;;;;;;;15.40;69.74;100067.56;4471371;32;33857;-78
2023/08/09 02:32:33;;;;;;;4.12;1.60;;;;;;;15.86;67.04;100063.69;4480571;32;33674;-77
2023/08/09 02:35:02;;;;;;;3.75;1.70;;;;;;;16.14;65.64;100063.56;4467326;32;33604;-77
2023/08/09 02:37:30;;;;;;;3.65;1.52;;;;;;;15.59;68.78;100069.00;4472608;32;34318;-76
2023/08/09 02:39:59;;;;;;;4.18;1.70;;;;;;;15.46;69.57;100067.75;4468227;32;32377;-77
2023/08/09 02:42:26;;;;;;;3.33;1.40;;;;;;;15.52;68.63;100078.38;4471276;32;33900;-77
2023/08/09 02:44:54;;;;;;;2.75;1.60;;;;;;;15.65;67.63;100070.91;4471650;32;33596;-79
2023/08/09 02:47:22;;;;;;;3.33;1.80;;;;;;;15.70;66.99;100071.91;4471931;32;33561;-77
2023/08/09 02:49:50;;;;;;;4.40;1.73;;;;;;;15.65;66.97;100078.75;4468947;32;33551;-77
2023/08/09 02:52:19;;;;;;;4.75;1.65;;;;;;;15.63;67.67;100080.44;4458416;32;33296;-77
2023/08/09 02:54:47;;;;;;;4.00;1.90;;;;;;;15.25;69.53;100082.78;4477454;32;34467;-77
2023/08/09 02:57:15;;;;;;;4.00;1.60;;;;;;;15.57;68.58;100075.91;4475228;32;34172;-76
2023/08/09 02:59:43;;;;;;;4.05;1.50;;;;;;;15.05;71.20;100085.66;4475070;32;33558;-76
2023/08/09 03:02:10;;;;;;;4.40;1.50;;;;;;;15.30;70.78;100083.81;4469243;32;33852;-77
2023/08/09 03:04:38;;;;;;;3.47;1.60;;;;;;;15.08;70.73;100084.84;4474312;32;34118;-77
2023/08/09 03:07:06;;;;;;;5.57;1.65;;;;;;;15.14;70.91;100083.34;4473615;32;33801;-78
2023/08/09 03:09:34;;;;;;;3.72;1.60;;;;;;;15.29;70.48;100087.25;4475893;32;33900;-77
2023/08/09 03:12:02;;;;;;;3.28;1.50;;;;;;;15.26;70.46;100084.53;4478715;32;33158;-76
2023/08/09 03:14:30;;;;;;;3.72;1.60;;;;;;;15.47;68.75;100090.41;4483780;32;33530;-77
2023/08/09 03:16:57;;;;;;;4.93;1.62;;;;;;;15.68;67.20;100089.25;4477967;32;33594;-76
2023/08/09 03:19:25;;;;;;;3.15;1.52;;;;;;;15.58;68.35;100090.72;4480595;32;33895;-77
2023/08/09 03:21:53;;;;;;;4.07;1.53;;;;;;;15.59;68.30;100088.97;4476208;32;33656;-77
2023/08/09 03:24:21;;;;;;;7.12;1.90;;;;;;;15.45;69.37;100088.59;4482936;32;34251;-76
2023/08/09 03:26:48;;;;;;;4.55;1.80;;;;;;;15.68;67.04;100094.47;4481783;32;33466;-77
2023/08/09 03:29:16;;;;;;;3.35;1.73;;;;;;;15.38;67.60;100084.91;4481881;32;33620;-77
2023/08/09 03:31:44;;;;;;;4.53;1.75;;;;;;;15.28;69.31;100088.09;4480174;32;33374;-77
2023/08/09 03:34:12;;;;;;;4.40;1.50;;;;;;;15.30;69.93;100091.66;4481801;32;34371;-77
2023/08/09 03:36:40;;;;;;;4.10;1.70;;;;;;;15.36;70.30;100090.94;4479210;32;33540;-77
2023/08/09 03:39:08;;;;;;;3.37;1.53;;;;;;;15.63;69.36;100088.25;4483504;32;33920;-76
2023/08/09 03:41:35;;;;;;;3.37;1.65;;;;;;;15.52;69.06;100088.81;4473288;32;31692;-76
2023/08/09 03:44:04;;;;;;;4.03;1.70;;;;;;;15.52;67.80;100093.16;4482238;32;33730;-77
2023/08/09 03:46:31;;;;;;;3.78;1.90;;;;;;;15.51;68.88;100091.37;4483578;32;33805;-77
2023/08/09 03:49:01;;;;;;;3.78;1.83;;;;;;;15.14;70.14;100091.16;4480304;32;33480;-77
2023/08/09 03:51:29;;;;;;;4.45;1.60;;;;;;;15.37;69.13;100093.56;4478108;32;33231;-77
2023/08/09 03:53:57;;;;;;;6.80;2.00;;;;;;;15.26;70.23;100094.97;4483325;32;33505;-77
2023/08/09 03:56:24;;;;;;;4.65;1.75;;;;;;;15.52;68.42;100088.81;4480539;32;34666;-77
2023/08/09 03:58:52;;;;;;;4.80;2.00;;;;;;;15.48;69.70;100091.28;4481432;32;33769;-76
2023/08/09 04:01:20;;;;;;;4.17;1.80;;;;;;;15.36;71.04;100093.56;4482361;32;31987;-77
2023/08/09 04:03:48;;;;;;;4.70;1.80;;;;;;;15.90;68.92;100096.91;4482105;32;33721;-76
2023/08/09 04:06:15;;;;;;;3.92;1.77;;;;;;;16.28;67.66;100094.44;4475347;32;34581;-77
2023/08/09 04:08:44;;;;;;;3.87;1.67;;;;;;;16.53;66.21;100095.06;4482796;32;33595;-76
2023/08/09 04:11:11;;;;;;;4.28;1.70;;;;;;;16.71;65.60;100106.00;4477638;32;33313;-76
2023/08/09 04:13:41;;;;;;;4.80;1.77;;;;;;;16.25;67.67;100104.81;4482357;32;33736;-76
2023/08/09 04:16:09;;;;;;;3.90;1.60;;;;;;;15.77;69.81;100110.44;4482524;32;33959;-76
2023/08/09 04:18:37;;;;;;;4.03;1.60;;;;;;;16.03;69.19;100103.38;4459529;32;34283;-77
2023/08/09 04:21:06;;;;;;;3.90;1.50;;;;;;;16.33;68.15;100107.63;4481102;32;33195;-77
2023/08/09 04:23:34;;;;;;;3.97;1.67;;;;;;;16.38;68.01;100107.75;4480118;32;34019;-77
2023/08/09 04:26:03;;;;;;;3.45;1.67;;;;;;;16.30;68.21;100107.53;4483682;32;34603;-77
2023/08/09 04:28:30;;;;;;;6.18;2.10;;;;;;;16.16;69.46;100099.34;4482082;32;33297;-77
2023/08/09 04:30:58;;;;;;;5.20;1.67;;;;;;;16.36;69.11;100102.50;4482717;32;32860;-76
2023/08/09 04:33:26;;;;;;;5.20;1.50;;;;;;;16.24;69.54;100103.03;4465106;32;33741;-76
2023/08/09 04:35:54;;;;;;;3.53;1.50;;;;;;;16.21;69.84;100089.91;4475468;32;33678;-77
2023/08/09 04:38:21;;;;;;;4.03;1.80;;;;;;;16.57;67.73;100091.69;4478146;32;33716;-76
2023/08/09 04:40:49;;;;;;;5.43;1.75;;;;;;;16.24;69.38;100092.56;4470385;32;33373;-77
2023/08/09 04:43:17;;;;;;;4.45;1.80;;;;;;;16.34;69.56;100098.06;4478142;32;34589;-76
2023/08/09 04:45:44;;;;;;;4.28;1.80;;;;;;;16.56;68.58;100095.16;4479225;32;33823;-77
2023/08/09 04:48:17;;;;;;;4.97;2.00;;;;;;;16.33;69.49;100096.31;4474104;32;34681;-77
2023/08/09 04:50:44;;;;;;;5.00;1.80;;;;;;;16.36;70.29;100093.75;4483083;32;32971;-76
2023/08/09 04:53:12;;;;;;;5.45;2.10;;;;;;;16.59;69.93;100099.56;4483136;32;33814;-77
2023/08/09 04:55:39;;;;;;;5.40;1.83;;;;;;;16.65;69.52;100103.25;4482963;32;33680;-77
2023/08/09 04:58:08;;;;;;;6.32;1.87;;;;;;;16.22;71.28;100102.09;4468547;32;32222;-76
2023/08/09 05:00:35;;;;;;;4.95;1.60;;;;;;;16.60;70.04;100101.34;4469203;32;34133;-76
2023/08/09 05:03:04;;;;;;;5.33;1.90;;;;;;;16.71;70.07;100106.00;4469634;32;33228;-78
2023/08/09 05:05:32;;;;;;;4.15;1.60;;;;;;;17.04;68.76;100099.84;4476436;32;33350;-76
2023/08/09 05:08:00;;;;;;;4.65;1.90;;;;;;;17.04;68.87;100106.81;4479396;32;33633;-77
2023/08/09 05:10:27;;;;;;;5.25;1.85;;;;;;;17.08;68.38;100104.28;4481177;32;33042;-78
2023/08/09 05:12:55;;;;;;;4.85;1.80;;;;;;;16.85;69.45;100102.88;4480130;32;34516;-78
2023/08/09 05:15:23;;;;;;;5.12;1.77;;;;;;;17.39;67.29;100107.59;4474999;32;34002;-77
2023/08/09 05:17:50;;;;;;;6.15;2.00;;;;;;;17.15;68.10;100114.91;4477523;32;33723;-76
2023/08/09 05:20:18;;;;;;;6.45;1.90;;;;;;;17.02;68.83;100112.00;4478008;32;33153;-77
2023/08/09 05:22:45;;;;;;;4.50;1.90;;;;;;;17.13;68.73;100119.22;4479291;32;33842;-77
2023/08/09 05:25:13;;;;;;;4.53;1.92;;;;;;;17.34;68.10;100114.47;4476381;32;33649;-77
2023/08/09 05:27:40;;;;;;;5.97;1.87;;;;;;;17.18;68.91;100112.38;4478218;32;33887;-77
2023/08/09 05:30:08;;;;;;;5.35;2.20;;;;;;;17.26;68.72;100116.03;4461535;32;33002;-77
2023/08/09 05:32:36;;;;;;;5.60;2.17;;;;;;;17.59;67.44;100107.16;4481783;32;33468;-77
2023/08/09 05:35:04;;;;;;;5.57;2.05;;;;;;;17.61;67.41;100105.44;4465394;32;32232;-77
2023/08/09 05:37:32;;;;;;;5.37;1.80;;;;;;;17.58;68.15;100103.66;4478786;32;33935;-77
2023/08/09 05:39:59;;;;;;;5.95;2.00;;;;;;;17.67;68.31;100109.09;4482480;32;34327;-77
2023/08/09 05:42:27;;;;;;;7.03;2.35;;;;;;;17.59;68.66;100104.53;4481917;32;33809;-77
2023/08/09 05:44:54;;;;;;;4.85;2.30;;;;;;;17.88;67.44;100098.19;4483306;32;33800;-77
2023/08/09 05:47:22;;;;;;;5.30;2.17;;;;;;;17.93;67.05;100095.66;4483285;32;33666;-78
2023/08/09 05:49:49;;;;;;;6.35;2.10;;;;;;;17.75;68.04;100104.00;4478886;32;33337;-76
2023/08/09 05:52:17;;;;;;;5.30;2.30;;;;;;;17.97;67.46;100102.72;4479191;32;33894;-78
2023/08/09 05:54:48;;;;;;;7.57;2.70;;;;;;;17.94;67.81;100101.78;4476467;31;33456;-79
2023/08/09 05:57:15;;;;;;;6.35;2.58;;;;;;;17.87;68.35;100106.91;4462736;32;32028;-77
2023/08/09 05:59:43;;;;;;;6.80;2.20;;;;;;;18.09;67.84;100112.56;4473189;32;33099;-78
2023/08/09 06:02:11;;;;;;;7.47;2.97;;;;;;;18.25;67.38;100114.63;4474418;32;33570;-78
2023/08/09 06:04:38;;;;;;;6.45;2.72;;;;;;;18.37;66.42;100107.81;4478994;32;33892;-77
2023/08/09 06:07:07;;;;;;;7.30;2.85;;;;;;;18.45;66.16;100112.38;4472641;32;33607;-78
2023/08/09 06:09:34;;;;;;;6.82;2.60;;;;;;;18.41;66.04;100100.06;4474004;32;33308;-78
2023/08/09 06:12:05;;;;;;;6.40;2.60;;;;;;;18.77;64.87;100108.53;4476688;31;33680;-77
2023/08/09 06:14:33;;;;;;;6.40;2.60;;;;;;;19.18;64.00;100100.44;4478130;32;33123;-78
2023/08/09 06:17:01;;;;;;;5.68;2.30;;;;;;;19.09;64.85;100102.94;4471565;32;34321;-77
2023/08/09 06:19:30;;;;;;;4.85;2.50;;;;;;;19.20;64.02;100094.37;4472194;32;33224;-77
2023/08/09 06:21:57;;;;;;;6.35;2.55;;;;;;;19.07;63.34;100096.78;4473547;32;33674;-79
2023/08/09 06:24:25;;;;;;;7.90;2.25;;;;;;;19.30;62.52;100099.75;4459469;32;33721;-80
2023/08/09 06:26:54;;;;;;;5.12;2.40;;;;;;;19.59;61.65;100097.50;4477081;32;34532;-79
2023/08/09 06:29:21;;;;;;;4.65;2.20;;;;;;;19.80;60.62;100099.56;4475202;32;33356;-78
2023/08/09 06:31:50;;;;;;;6.43;2.30;;;;;;;19.58;61.98;100095.72;4468535;32;34573;-76
2023/08/09 06:34:18;;;;;;;4.37;1.92;;;;;;;19.57;63.02;100091.34;4479183;32;33768;-76
2023/08/09 06:36:45;;;;;;;4.57;1.90;;;;;;;19.58;63.65;100091.34;4481297;32;33929;-78
2023/08/09 06:39:13;;;;;;;5.32;2.10;;;;;;;19.64;63.34;100091.47;4482257;32;33881;-77
2023/08/09 06:41:40;;;;;;;4.03;1.90;;;;;;;19.63;61.04;100088.81;4477928;32;33987;-77
2023/08/09 06:44:08;;;;;;;5.78;1.70;;;;;;;19.94;61.13;100091.84;4484286;32;34189;-77
2023/08/09 06:46:37;;;;;;;5.33;1.90;;;;;;;20.28;61.78;100100.06;4484317;32;33372;-77
2023/08/09 06:49:04;;;;;;;7.47;1.90;;;;;;;20.50;61.16;100107.31;4476784;32;33297;-78
2023/08/09 06:51:32;;;;;;;5.15;1.83;;;;;;;20.49;61.43;100104.66;4463148;32;34245;-77
2023/08/09 06:54:00;;;;;;;7.90;2.40;;;;;;;20.49;61.10;100100.28;4480560;32;34519;-78
2023/08/09 06:56:27;;;;;;;4.85;1.70;;;;;;;20.69;59.39;100102.25;4482527;32;33172;-76
2023/08/09 06:58:55;;;;;;;4.72;1.65;;;;;;;20.69;59.63;100104.87;4482106;32;33970;-79
2023/08/09 07:01:23;;;;;;;7.62;2.00;;;;;;;20.94;59.62;100104.19;4462142;32;33241;-78
2023/08/09 07:03:50;;;;;;;5.63;2.10;;;;;;;21.01;59.75;100103.38;4476346;32;34551;-77
2023/08/09 07:06:18;;;;;;;6.40;2.20;;;;;;;21.31;58.01;100099.19;4480051;32;34132;-80
2023/08/09 07:08:46;;;;;;;6.18;2.00;;;;;;;21.50;57.64;100094.91;4468381;32;33099;-79
2023/08/09 07:11:14;;;;;;;5.10;2.00;;;;;;;21.82;56.77;100095.94;4477867;32;33942;-78
2023/08/09 07:13:42;;;;;;;4.30;1.98;;;;;;;21.95;53.67;100087.19;4482564;32;33778;-76
2023/08/09 07:16:09;;;;;;;3.20;1.90;;;;;;;21.85;52.35;100090.69;4482435;32;34687;-79
2023/08/09 07:18:37;;;;;;;4.40;1.90;;;;;;;22.08;51.63;100096.91;4476789;32;33534;-79
2023/08/09 07:21:05;;;;;;;7.05;2.17;;;;;;;22.27;52.26;100089.94;4480552;32;33923;-77
2023/08/09 07:23:32;;;;;;;7.85;2.55;;;;;;;22.25;52.87;100090.78;4483762;32;33807;-80
2023/08/09 07:26:20;;;;;;;5.50;2.00;;;;;;;22.57;52.98;100091.72;4480853;32;33791;-76
2023/08/09 07:28:47;;;;;;;6.50;2.10;;;;;;;22.88;52.10;100093.47;4481779;32;33193;-80
2023/08/09 07:31:20;;;;;;;6.62;2.30;;;;;;;22.91;51.11;100083.78;4479319;32;33784;-79
2023/08/09 07:33:49;;;;;;;4.95;2.10;;;;;;;23.06;50.21;100088.19;4466933;32;31881;-79
2023/08/09 07:36:16;;;;;;;5.80;2.20;;;;;;;23.30;49.51;100081.97;4483689;32;34437;-77
2023/08/09 07:38:44;;;;;;;5.25;2.05;;;;;;;23.56;49.64;100083.66;4479087;32;32989;-78
2023/08/09 07:41:12;;;;;;;4.90;2.00;;;;;;;23.84;48.42;100088.88;4477988;32;34366;-77
2023/08/09 07:43:40;;;;;;;4.15;1.73;;;;;;;24.07;46.51;100086.97;4482430;32;33996;-76
2023/08/09 07:46:07;;;;;;;4.90;1.83;;;;;;;24.23;48.12;100089.53;4484272;32;33380;-80
2023/08/09 07:48:35;;;;;;;5.05;2.00;;;;;;;24.71;46.87;100090.09;4483383;32;33131;-77
2023/08/09 07:51:03;;;;;;;4.18;1.98;;;;;;;24.75;45.63;100081.22;4465706;32;33845;-79
2023/08/09 07:53:30;;;;;;;5.00;1.77;;;;;;;24.99;45.70;100079.22;4475752;32;33820;-79
2023/08/09 07:55:58;;;;;;;3.53;1.62;;;;;;;25.24;45.73;100075.47;4483366;32;34179;-77
2023/08/09 07:58:25;;;;;;;3.75;1.73;;;;;;;25.26;45.17;100073.66;4484046;32;33215;-78
2023/08/09 08:00:53;;;;;;;5.43;1.70;;;;;;;25.45;44.90;100078.78;4483837;32;34276;-77
2023/08/09 08:03:21;;;;;;;5.05;1.87;;;;;;;25.27;44.33;100080.75;4479569;32;33362;-79
2023/08/09 08:05:49;;;;;;;5.15;1.67;;;;;;;25.18;44.85;100083.44;4469906;32;34149;-78
2023/08/09 08:08:20;;;;;;;5.28;1.58;;;;;;;25.48;44.39;100079.62;4480474;32;33380;-77
2023/08/09 08:10:47;;;;;;;4.43;1.90;;;;;;;25.61;44.93;100080.34;4479779;32;32882;-78
2023/08/09 08:13:15;;;;;;;4.05;1.60;;;;;;;25.54;44.81;100077.81;4483821;32;34296;-77
2023/08/09 08:15:43;;;;;;;4.07;1.90;;;;;;;25.60;44.57;100081.25;4481121;32;34641;-78
2023/08/09 08:18:11;;;;;;;4.82;1.80;;;;;;;25.38;45.77;100080.63;4480987;32;32805;-76
2023/08/09 08:20:39;;;;;;;5.32;2.05;;;;;;;25.14;45.36;100089.69;4479155;32;34580;-78
2023/08/09 08:23:06;;;;;;;5.22;1.87;;;;;;;25.16;45.35;100093.19;4472991;32;33507;-79
2023/08/09 08:25:34;;;;;;;3.85;1.80;;;;;;;25.06;45.47;100092.41;4480944;32;33542;-78
2023/08/09 08:28:02;;;;;;;5.05;1.90;;;;;;;24.87;45.83;100091.69;4483946;32;33249;-78
2023/08/09 08:30:29;;;;;;;4.90;1.92;;;;;;;25.01;45.90;100088.03;4478126;32;34573;-77
2023/08/09 08:32:57;;;;;;;5.45;1.60;;;;;;;24.98;45.46;100086.31;4476884;32;33397;-77
2023/08/09 08:35:33;;;;;;;4.50;1.90;;;;;;;24.97;46.97;100091.63;4481987;32;34509;-77
2023/08/09 08:38:02;;;;;;;5.28;1.70;;;;;;;24.96;47.49;100093.41;4482413;32;33490;-79
2023/08/09 08:40:31;;;;;;;4.00;1.92;;;;;;;25.25;45.74;100086.97;4481661;32;33881;-79
2023/08/09 08:42:59;;;;;;;69.53;8.98;;;;;;;25.09;47.01;100086.19;4476880;32;33547;-77
2023/08/09 08:45:26;;;;;;;119.00;13.73;;;;;;;25.04;47.23;100088.03;4472668;32;33827;-77
2023/08/09 08:47:54;;;;;;;216.60;21.40;;;;;;;25.48;45.94;100078.75;4476069;32;33234;-78
2023/08/09 08:50:25;;;;;;;146.37;17.23;;;;;;;25.68;45.42;100082.00;4456495;32;32160;-77
2023/08/09 08:52:53;;;;;;;28.17;5.72;;;;;;;25.52;45.34;100080.47;4462467;32;33488;-78
2023/08/09 08:55:22;;;;;;;10.40;2.75;;;;;;;25.39;46.93;100084.16;4470642;32;33860;-79
2023/08/09 08:57:49;;;;;;;8.17;2.47;;;;;;;25.72;46.43;100082.00;4474121;32;33329;-77
2023/08/09 09:00:17;;;;;;;11.80;2.40;;;;;;;25.69;46.08;100075.81;4474075;32;33500;-77
2023/08/09 09:02:47;;;;;;;6.12;1.80;;;;;;;25.46;46.15;100075.25;4467670;32;32000;-78
2023/08/09 09:05:16;;;;;;;6.33;1.73;;;;;;;25.43;44.68;100072.62;4475599;32;34403;-77
2023/08/09 09:07:46;;;;;;;5.60;1.70;;;;;;;25.50;45.68;100076.97;4472693;32;33021;-78
2023/08/09 09:10:14;;;;;;;5.10;1.55;;;;;;;25.41;44.49;100075.28;4472759;32;33559;-78
2023/08/09 09:12:41;;;;;;;4.37;1.53;;;;;;;25.17;45.17;100080.81;4473296;32;33435;-81
2023/08/09 09:15:09;;;;;;;4.93;1.55;;;;;;;25.28;45.41;100076.31;4480217;32;33604;-80
2023/08/09 09:17:42;;;;;;;4.70;1.50;;;;;;;25.34;45.23;100080.66;4470105;32;33385;-77
2023/08/09 09:20:39;;;;;;;3.53;1.27;;;;;;;25.34;45.63;100075.34;4477475;32;33644;-78
2023/08/09 09:23:07;;;;;;;4.07;1.52;;;;;;;25.43;45.31;100076.12;4446794;32;33759;-78
2023/08/09 09:25:35;;;;;;;10.70;1.60;;;;;;;25.43;45.95;100077.91;4480878;31;33365;-78
2023/08/09 09:28:03;;;;;;;4.70;1.40;;;;;;;25.28;45.94;100066.59;4479875;32;34582;-77
2023/08/09 09:30:31;;;;;;;4.97;1.58;;;;;;;25.42;44.44;100073.50;4484074;32;34541;-78
2023/08/09 09:33:03;;;;;;;4.70;1.77;;;;;;;25.26;45.30;100072.78;4484250;32;33515;-77
2023/08/09 09:35:32;;;;;;;7.07;1.60;;;;;;;25.29;45.45;100071.00;4480872;32;33499;-78
2023/08/09 09:38:03;;;;;;;6.87;1.60;;;;;;;25.29;45.53;100063.03;4484755;32;32802;-78
2023/08/09 09:40:32;;;;;;;5.62;1.60;;;;;;;25.26;45.75;100064.84;4484420;32;32865;-77
2023/08/09 09:43:04;;;;;;;4.45;1.40;;;;;;;25.46;46.05;100064.63;4481334;32;34373;-78
2023/08/09 09:45:32;;;;;;;3.53;1.13;;;;;;;25.51;45.28;100057.47;4480089;32;33619;-77
2023/08/09 09:48:01;;;;;;;4.60;1.40;;;;;;;25.74;45.29;100058.97;4479118;32;33459;-77
2023/08/09 09:50:31;;;;;;;3.62;1.20;;;;;;;25.86;44.74;100059.69;4480304;32;34263;-78
2023/08/09 09:52:59;;;;;;;2.03;1.02;;;;;;;25.99;43.43;100071.03;4483950;32;33604;-77
2023/08/09 09:55:28;;;;;;;3.60;0.90;;;;;;;26.07;43.67;100058.50;4483734;32;34385;-77
2023/08/09 09:57:58;;;;;;;2.12;0.80;;;;;;;26.23;40.64;100055.62;4479147;32;33451;-77
2023/08/09 10:00:27;;;;;;;2.40;1.00;;;;;;;26.14;42.63;100064.63;4481385;31;33763;-77
2023/08/09 10:02:56;;;;;;;3.20;1.00;;;;;;;26.09;42.25;100062.03;4475100;32;34252;-77
2023/08/09 10:05:43;;;;;;;3.57;0.90;;;;;;;26.29;39.75;100060.87;4453829;32;32321;-77
2023/08/09 10:08:13;;;;;;;3.65;0.90;;;;;;;26.63;40.65;100055.91;4478691;32;32553;-77
2023/08/09 10:10:43;;;;;;;2.25;0.80;;;;;;;26.57;38.54;100052.44;4472929;32;33535;-77
2023/08/09 10:13:16;;;;;;;1.60;0.77;;;;;;;26.54;40.22;100044.50;4481026;32;33644;-78
2023/08/09 10:15:47;;;;;;;3.05;1.00;;;;;;;26.63;40.43;100041.75;4463865;32;33108;-77
2023/08/09 10:18:29;;;;;;;3.62;0.80;;;;;;;26.84;39.66;100044.00;4472298;32;33004;-77
2023/08/09 10:20:58;;;;;;;2.55;0.80;;;;;;;26.49;37.96;100042.81;4460353;32;33135;-77
2023/08/09 10:23:28;;;;;;;2.83;0.90;;;;;;;26.82;39.06;100043.16;4461957;32;34350;-77
2023/08/09 10:25:56;;;;;;;2.37;0.70;;;;;;;27.02;38.21;100039.25;4477121;32;32653;-77
2023/08/09 10:28:44;;;;;;;2.97;0.70;;;;;;;26.84;39.32;100044.00;4479783;31;33729;-76
2023/08/09 10:31:15;;;;;;;3.75;0.80;;;;;;;27.40;36.64;100035.00;4475697;32;32825;-77
2023/08/09 10:34:10;;;;;;;2.03;0.80;;;;;;;26.89;36.91;100038.62;4481126;32;32999;-78
2023/08/09 10:36:38;;;;;;;1.75;0.57;;;;;;;26.97;38.75;100041.16;4477626;32;33014;-77
2023/08/09 10:39:14;;;;;;;2.05;0.70;;;;;;;27.24;36.88;100037.06;4481778;32;33883;-77
2023/08/09 10:42:04;;;;;;;1.80;0.80;;;;;;;27.15;36.92;100035.47;4480874;32;33129;-78
2023/08/09 10:44:33;;;;;;;2.47;0.80;;;;;;;27.13;36.76;100034.63;4481688;32;32745;-77
2023/08/09 10:47:03;;;;;;;3.95;0.82;;;;;;;26.83;37.73;100039.63;4476749;31;33398;-77
2023/08/09 10:49:44;;;;;;;2.90;0.70;;;;;;;26.82;37.56;100037.84;4460268;32;32369;-76
2023/08/09 10:52:14;;;;;;;2.50;0.67;;;;;;;26.47;38.46;100041.97;4474808;32;32785;-77
2023/08/09 10:55:26;;;;;;;3.37;0.68;;;;;;;26.40;39.15;100034.13;4472718;32;32739;-77
2023/08/09 10:57:56;;;;;;;2.17;0.60;;;;;;;26.80;37.35;100034.34;4481393;32;33255;-77
2023/08/09 11:00:24;;;;;;;2.62;0.62;;;;;;;26.77;37.61;100034.41;4473779;32;32722;-77
2023/08/09 11:02:56;;;;;;;1.87;0.73;;;;;;;26.84;37.36;100025.41;4469866;32;33708;-75
2023/08/09 11:05:27;;;;;;;2.30;0.70;;;;;;;26.71;36.98;100034.50;4470313;32;33326;-75
2023/08/09 11:07:56;;;;;;;2.77;0.70;;;;;;;26.82;37.72;100037.84;4467441;32;34315;-75
2023/08/09 11:10:37;;;;;;;1.87;0.60;;;;;;;26.85;37.51;100027.19;4479729;32;32910;-75
2023/08/09 11:13:08;;;;;;;1.83;0.73;;;;;;;27.05;37.30;100031.25;4456944;32;33747;-75
2023/08/09 11:15:37;;;;;;;1.07;0.53;;;;;;;27.13;36.62;100028.44;4459733;32;31906;-74
2023/08/09 11:18:06;;;;;;;2.78;0.80;;;;;;;27.15;35.78;100027.47;4480807;32;33202;-76
2023/08/09 11:20:34;;;;;;;2.55;0.70;;;;;;;26.92;35.50;100021.75;4476453;32;33983;-75
2023/08/09 11:23:03;;;;;;;2.67;0.70;;;;;;;26.19;36.39;100032.69;4481637;32;33807;-75
2023/08/09 11:25:32;;;;;;;1.57;0.50;;;;;;;26.54;37.13;100028.56;4482678;32;33716;-75
2023/08/09 11:28:03;;;;;;;1.65;0.60;;;;;;;26.86;36.39;100022.72;4479227;32;34173;-76
2023/08/09 11:30:32;;;;;;;2.00;0.70;;;;;;;26.97;36.39;100025.19;4483373;32;33074;-76
2023/08/09 11:33:05;;;;;;;2.13;0.63;;;;;;;26.74;36.47;100030.94;4481220;32;33206;-76